sensor_id;sensor_type;location;lat;lon;timestamp;P1;durP1;ratioP1;P2;durP2;ratioP2
67776;SDS011;54576;52.020;5.536;2023-07-24T00:02:06;2.47;;;2.08;;
67776;SDS011;54576;52.020;5.536;2023-07-24T00:04:32;2.95;;;1.80;;
67776;SDS011;54576;52.020;5.536;2023-07-24T00:06:57;2.03;;;1.92;;
67776;SDS011;54576;52.020;5.536;2023-07-24T00:09:24;2.47;;;2.28;;
67776;SDS011;54576;52.020;5.536;2023-07-24T00:11:50;2.20;;;2.10;;
67776;SDS011;54576;52.020;5.536;2023-07-24T00:14:16;4.20;;;2.60;;
67776;SDS011;54576;52.020;5.536;2023-07-24T00:16:41;3.33;;;2.35;;
67776;SDS011;54576;52.020;5.536;2023-07-24T00:19:07;2.50;;;2.40;;
67776;SDS011;54576;52.020;5.536;2023-07-24T00:21:32;3.05;;;2.80;;
67776;SDS011;54576;52.020;5.536;2023-07-24T00:23:58;2.50;;;2.28;;
67776;SDS011;54576;52.020;5.536;2023-07-24T00:26:24;4.90;;;2.63;;
67776;SDS011;54576;52.020;5.536;2023-07-24T00:28:49;2.90;;;2.70;;
67776;SDS011;54576;52.020;5.536;2023-07-24T00:31:15;2.42;;;2.33;;
67776;SDS011;54576;52.020;5.536;2023-07-24T00:33:40;3.25;;;2.30;;
67776;SDS011;54576;52.020;5.536;2023-07-24T00:36:06;2.63;;;2.53;;
67776;SDS011;54576;52.020;5.536;2023-07-24T00:38:32;3.22;;;2.70;;
67776;SDS011;54576;52.020;5.536;2023-07-24T00:40:57;2.45;;;2.30;;
67776;SDS011;54576;52.020;5.536;2023-07-24T00:43:23;2.50;;;2.30;;
67776;SDS011;54576;52.020;5.536;2023-07-24T00:45:48;2.55;;;2.42;;
67776;SDS011;54576;52.020;5.536;2023-07-24T00:48:14;2.65;;;2.42;;
67776;SDS011;54576;52.020;5.536;2023-07-24T00:50:41;2.72;;;2.53;;
67776;SDS011;54576;52.020;5.536;2023-07-24T00:53:08;3.27;;;2.57;;
67776;SDS011;54576;52.020;5.536;2023-07-24T00:55:35;2.83;;;2.13;;
67776;SDS011;54576;52.020;5.536;2023-07-24T00:58:00;2.45;;;2.30;;
67776;SDS011;54576;52.020;5.536;2023-07-24T01:00:28;2.17;;;2.08;;
67776;SDS011;54576;52.020;5.536;2023-07-24T01:02:54;2.10;;;2.00;;
67776;SDS011;54576;52.020;5.536;2023-07-24T01:05:21;2.53;;;1.90;;
67776;SDS011;54576;52.020;5.536;2023-07-24T01:07:50;2.15;;;2.05;;
67776;SDS011;54576;52.020;5.536;2023-07-24T01:10:16;2.72;;;2.10;;
67776;SDS011;54576;52.020;5.536;2023-07-24T01:15:54;2.55;;;2.28;;
67776;SDS011;54576;52.020;5.536;2023-07-24T01:18:13;1.80;;;1.70;;
67776;SDS011;54576;52.020;5.536;2023-07-24T01:20:47;2.53;;;1.73;;
67776;SDS011;54576;52.020;5.536;2023-07-24T01:23:21;4.03;;;2.25;;
67776;SDS011;54576;52.020;5.536;2023-07-24T01:28:16;1.85;;;1.75;;
67776;SDS011;54576;52.020;5.536;2023-07-24T01:30:42;3.65;;;3.00;;
67776;SDS011;54576;52.020;5.536;2023-07-24T01:33:07;5.93;;;2.15;;
67776;SDS011;54576;52.020;5.536;2023-07-24T01:35:33;5.85;;;1.90;;
67776;SDS011;54576;52.020;5.536;2023-07-24T01:37:58;2.75;;;1.95;;
67776;SDS011;54576;52.020;5.536;2023-07-24T01:40:26;2.80;;;1.77;;
67776;SDS011;54576;52.020;5.536;2023-07-24T01:42:52;2.92;;;1.98;;
67776;SDS011;54576;52.020;5.536;2023-07-24T01:45:18;2.42;;;2.22;;
67776;SDS011;54576;52.020;5.536;2023-07-24T01:47:43;4.07;;;1.90;;
67776;SDS011;54576;52.020;5.536;2023-07-24T01:50:09;2.95;;;1.95;;
67776;SDS011;54576;52.020;5.536;2023-07-24T01:52:35;2.00;;;1.88;;
67776;SDS011;54576;52.020;5.536;2023-07-24T01:55:01;4.78;;;2.00;;
67776;SDS011;54576;52.020;5.536;2023-07-24T01:57:26;2.45;;;1.90;;
67776;SDS011;54576;52.020;5.536;2023-07-24T01:59:52;1.73;;;1.63;;
67776;SDS011;54576;52.020;5.536;2023-07-24T02:02:17;2.10;;;1.90;;
67776;SDS011;54576;52.020;5.536;2023-07-24T02:04:43;2.38;;;1.80;;
67776;SDS011;54576;52.020;5.536;2023-07-24T02:07:10;2.45;;;1.80;;
67776;SDS011;54576;52.020;5.536;2023-07-24T02:09:36;4.60;;;2.25;;
67776;SDS011;54576;52.020;5.536;2023-07-24T02:12:02;4.15;;;1.80;;
67776;SDS011;54576;52.020;5.536;2023-07-24T02:14:27;3.13;;;1.40;;
67776;SDS011;54576;52.020;5.536;2023-07-24T02:16:53;1.70;;;1.60;;
67776;SDS011;54576;52.020;5.536;2023-07-24T02:19:19;1.98;;;1.67;;
67776;SDS011;54576;52.020;5.536;2023-07-24T02:21:44;2.75;;;2.00;;
67776;SDS011;54576;52.020;5.536;2023-07-24T02:24:10;1.95;;;1.85;;
67776;SDS011;54576;52.020;5.536;2023-07-24T02:26:35;2.22;;;1.70;;
67776;SDS011;54576;52.020;5.536;2023-07-24T02:29:01;3.60;;;2.35;;
67776;SDS011;54576;52.020;5.536;2023-07-24T02:31:27;3.20;;;2.60;;
67776;SDS011;54576;52.020;5.536;2023-07-24T02:33:52;2.65;;;2.40;;
67776;SDS011;54576;52.020;5.536;2023-07-24T02:36:19;3.45;;;3.15;;
67776;SDS011;54576;52.020;5.536;2023-07-24T02:38:45;2.58;;;2.38;;
67776;SDS011;54576;52.020;5.536;2023-07-24T02:41:10;2.85;;;2.65;;
67776;SDS011;54576;52.020;5.536;2023-07-24T02:43:36;5.47;;;2.92;;
67776;SDS011;54576;52.020;5.536;2023-07-24T02:46:02;4.57;;;2.83;;
67776;SDS011;54576;52.020;5.536;2023-07-24T02:48:28;3.00;;;2.80;;
67776;SDS011;54576;52.020;5.536;2023-07-24T02:50:53;2.78;;;2.58;;
67776;SDS011;54576;52.020;5.536;2023-07-24T02:53:19;5.57;;;3.08;;
67776;SDS011;54576;52.020;5.536;2023-07-24T02:55:44;3.50;;;3.20;;
67776;SDS011;54576;52.020;5.536;2023-07-24T02:58:11;3.78;;;3.20;;
67776;SDS011;54576;52.020;5.536;2023-07-24T03:00:37;10.73;;;3.33;;
67776;SDS011;54576;52.020;5.536;2023-07-24T03:03:03;3.60;;;3.10;;
67776;SDS011;54576;52.020;5.536;2023-07-24T03:05:29;3.45;;;3.08;;
67776;SDS011;54576;52.020;5.536;2023-07-24T03:07:55;4.55;;;3.22;;
67776;SDS011;54576;52.020;5.536;2023-07-24T03:10:21;5.40;;;3.35;;
67776;SDS011;54576;52.020;5.536;2023-07-24T03:12:47;4.15;;;3.40;;
67776;SDS011;54576;52.020;5.536;2023-07-24T03:15:13;6.05;;;3.60;;
67776;SDS011;54576;52.020;5.536;2023-07-24T03:17:41;3.65;;;3.35;;
67776;SDS011;54576;52.020;5.536;2023-07-24T03:20:13;5.43;;;3.50;;
67776;SDS011;54576;52.020;5.536;2023-07-24T03:22:41;3.95;;;3.55;;
67776;SDS011;54576;52.020;5.536;2023-07-24T03:25:07;4.25;;;3.85;;
67776;SDS011;54576;52.020;5.536;2023-07-24T03:27:33;5.13;;;3.78;;
67776;SDS011;54576;52.020;5.536;2023-07-24T03:29:58;4.53;;;3.85;;
67776;SDS011;54576;52.020;5.536;2023-07-24T03:32:24;4.25;;;3.10;;
67776;SDS011;54576;52.020;5.536;2023-07-24T03:34:49;3.90;;;3.03;;
67776;SDS011;54576;52.020;5.536;2023-07-24T03:37:15;3.78;;;3.47;;
67776;SDS011;54576;52.020;5.536;2023-07-24T03:39:41;6.07;;;3.65;;
67776;SDS011;54576;52.020;5.536;2023-07-24T03:42:09;8.48;;;3.45;;
67776;SDS011;54576;52.020;5.536;2023-07-24T03:44:35;4.72;;;3.25;;
67776;SDS011;54576;52.020;5.536;2023-07-24T03:47:00;4.43;;;3.88;;
67776;SDS011;54576;52.020;5.536;2023-07-24T03:49:26;6.63;;;3.50;;
67776;SDS011;54576;52.020;5.536;2023-07-24T03:51:51;4.32;;;3.42;;
67776;SDS011;54576;52.020;5.536;2023-07-24T03:54:17;5.50;;;4.07;;
67776;SDS011;54576;52.020;5.536;2023-07-24T03:56:42;5.55;;;4.22;;
67776;SDS011;54576;52.020;5.536;2023-07-24T03:59:08;6.78;;;3.65;;
67776;SDS011;54576;52.020;5.536;2023-07-24T04:01:33;4.57;;;3.80;;
67776;SDS011;54576;52.020;5.536;2023-07-24T04:03:59;9.27;;;4.28;;
67776;SDS011;54576;52.020;5.536;2023-07-24T04:06:25;4.30;;;3.90;;
67776;SDS011;54576;52.020;5.536;2023-07-24T04:08:50;4.60;;;4.07;;
67776;SDS011;54576;52.020;5.536;2023-07-24T04:11:16;6.93;;;4.65;;
67776;SDS011;54576;52.020;5.536;2023-07-24T04:13:41;4.88;;;4.10;;
67776;SDS011;54576;52.020;5.536;2023-07-24T04:16:07;4.90;;;4.40;;
67776;SDS011;54576;52.020;5.536;2023-07-24T04:18:32;4.40;;;4.00;;
67776;SDS011;54576;52.020;5.536;2023-07-24T04:20:58;5.15;;;4.53;;
67776;SDS011;54576;52.020;5.536;2023-07-24T04:23:24;6.45;;;4.07;;
67776;SDS011;54576;52.020;5.536;2023-07-24T04:25:49;5.38;;;4.25;;
67776;SDS011;54576;52.020;5.536;2023-07-24T04:28:15;4.97;;;4.00;;
67776;SDS011;54576;52.020;5.536;2023-07-24T04:30:41;5.10;;;3.97;;
67776;SDS011;54576;52.020;5.536;2023-07-24T04:33:06;6.22;;;4.07;;
67776;SDS011;54576;52.020;5.536;2023-07-24T04:35:32;9.90;;;4.20;;
67776;SDS011;54576;52.020;5.536;2023-07-24T04:37:58;5.03;;;4.22;;
67776;SDS011;54576;52.020;5.536;2023-07-24T04:40:24;4.72;;;4.18;;
67776;SDS011;54576;52.020;5.536;2023-07-24T04:42:49;4.78;;;3.83;;
67776;SDS011;54576;52.020;5.536;2023-07-24T04:45:15;6.18;;;4.80;;
67776;SDS011;54576;52.020;5.536;2023-07-24T04:47:41;6.30;;;5.25;;
67776;SDS011;54576;52.020;5.536;2023-07-24T04:50:07;8.70;;;5.20;;
67776;SDS011;54576;52.020;5.536;2023-07-24T04:52:33;5.80;;;4.47;;
67776;SDS011;54576;52.020;5.536;2023-07-24T04:54:58;6.93;;;5.07;;
67776;SDS011;54576;52.020;5.536;2023-07-24T04:57:24;5.70;;;4.55;;
67776;SDS011;54576;52.020;5.536;2023-07-24T04:59:49;7.30;;;5.15;;
67776;SDS011;54576;52.020;5.536;2023-07-24T05:02:15;6.80;;;4.85;;
67776;SDS011;54576;52.020;5.536;2023-07-24T05:04:40;8.93;;;5.55;;
67776;SDS011;54576;52.020;5.536;2023-07-24T05:07:06;5.63;;;4.95;;
67776;SDS011;54576;52.020;5.536;2023-07-24T05:09:32;13.68;;;5.13;;
67776;SDS011;54576;52.020;5.536;2023-07-24T05:11:57;6.63;;;5.10;;
67776;SDS011;54576;52.020;5.536;2023-07-24T05:14:23;8.57;;;5.63;;
67776;SDS011;54576;52.020;5.536;2023-07-24T05:16:49;6.53;;;5.43;;
67776;SDS011;54576;52.020;5.536;2023-07-24T05:19:14;9.60;;;5.93;;
67776;SDS011;54576;52.020;5.536;2023-07-24T05:21:40;7.00;;;5.38;;
67776;SDS011;54576;52.020;5.536;2023-07-24T05:24:05;6.10;;;5.03;;
67776;SDS011;54576;52.020;5.536;2023-07-24T05:26:31;10.30;;;5.65;;
67776;SDS011;54576;52.020;5.536;2023-07-24T05:28:57;8.52;;;5.90;;
67776;SDS011;54576;52.020;5.536;2023-07-24T05:31:22;10.60;;;5.97;;
67776;SDS011;54576;52.020;5.536;2023-07-24T05:33:48;8.95;;;5.40;;
67776;SDS011;54576;52.020;5.536;2023-07-24T05:36:13;8.52;;;5.90;;
67776;SDS011;54576;52.020;5.536;2023-07-24T05:38:39;11.00;;;6.28;;
67776;SDS011;54576;52.020;5.536;2023-07-24T05:41:04;6.88;;;5.57;;
67776;SDS011;54576;52.020;5.536;2023-07-24T05:43:30;12.73;;;6.13;;
67776;SDS011;54576;52.020;5.536;2023-07-24T05:45:57;11.32;;;5.50;;
67776;SDS011;54576;52.020;5.536;2023-07-24T05:48:24;8.02;;;5.22;;
67776;SDS011;54576;52.020;5.536;2023-07-24T05:50:50;8.95;;;5.60;;
67776;SDS011;54576;52.020;5.536;2023-07-24T05:53:16;8.95;;;5.68;;
67776;SDS011;54576;52.020;5.536;2023-07-24T05:55:42;11.30;;;6.03;;
67776;SDS011;54576;52.020;5.536;2023-07-24T05:58:08;7.93;;;5.75;;
67776;SDS011;54576;52.020;5.536;2023-07-24T06:00:34;11.25;;;5.55;;
67776;SDS011;54576;52.020;5.536;2023-07-24T06:03:01;9.13;;;5.35;;
67776;SDS011;54576;52.020;5.536;2023-07-24T06:05:27;9.40;;;5.60;;
67776;SDS011;54576;52.020;5.536;2023-07-24T06:07:54;11.93;;;5.57;;
67776;SDS011;54576;52.020;5.536;2023-07-24T06:10:19;10.15;;;5.95;;
67776;SDS011;54576;52.020;5.536;2023-07-24T06:12:45;6.35;;;5.55;;
67776;SDS011;54576;52.020;5.536;2023-07-24T06:15:12;7.82;;;5.38;;
67776;SDS011;54576;52.020;5.536;2023-07-24T06:17:38;7.18;;;6.13;;
67776;SDS011;54576;52.020;5.536;2023-07-24T06:20:03;8.45;;;5.82;;
67776;SDS011;54576;52.020;5.536;2023-07-24T06:22:30;9.50;;;5.65;;
67776;SDS011;54576;52.020;5.536;2023-07-24T06:24:55;9.38;;;5.47;;
67776;SDS011;54576;52.020;5.536;2023-07-24T06:27:21;17.00;;;6.43;;
67776;SDS011;54576;52.020;5.536;2023-07-24T06:29:46;9.98;;;5.68;;
67776;SDS011;54576;52.020;5.536;2023-07-24T06:32:12;8.50;;;5.50;;
67776;SDS011;54576;52.020;5.536;2023-07-24T06:34:37;15.38;;;6.22;;
67776;SDS011;54576;52.020;5.536;2023-07-24T06:37:03;6.93;;;5.38;;
67776;SDS011;54576;52.020;5.536;2023-07-24T06:39:29;10.32;;;5.90;;
67776;SDS011;54576;52.020;5.536;2023-07-24T06:41:55;7.38;;;6.03;;
67776;SDS011;54576;52.020;5.536;2023-07-24T06:44:21;6.60;;;5.60;;
67776;SDS011;54576;52.020;5.536;2023-07-24T06:46:47;7.60;;;5.97;;
67776;SDS011;54576;52.020;5.536;2023-07-24T06:49:12;8.38;;;5.47;;
67776;SDS011;54576;52.020;5.536;2023-07-24T06:51:38;7.35;;;5.63;;
67776;SDS011;54576;52.020;5.536;2023-07-24T06:54:04;12.00;;;5.90;;
67776;SDS011;54576;52.020;5.536;2023-07-24T06:56:30;8.98;;;6.35;;
67776;SDS011;54576;52.020;5.536;2023-07-24T06:58:56;11.60;;;6.25;;
67776;SDS011;54576;52.020;5.536;2023-07-24T07:01:22;9.98;;;6.20;;
67776;SDS011;54576;52.020;5.536;2023-07-24T07:03:48;8.68;;;5.78;;
67776;SDS011;54576;52.020;5.536;2023-07-24T07:06:14;6.70;;;5.72;;
67776;SDS011;54576;52.020;5.536;2023-07-24T07:08:40;13.18;;;5.85;;
67776;SDS011;54576;52.020;5.536;2023-07-24T07:11:06;8.82;;;5.43;;
67776;SDS011;54576;52.020;5.536;2023-07-24T07:13:32;8.57;;;5.40;;
67776;SDS011;54576;52.020;5.536;2023-07-24T07:15:58;9.38;;;5.90;;
67776;SDS011;54576;52.020;5.536;2023-07-24T07:18:24;10.60;;;6.47;;
67776;SDS011;54576;52.020;5.536;2023-07-24T07:20:51;9.50;;;6.05;;
67776;SDS011;54576;52.020;5.536;2023-07-24T07:23:19;11.23;;;6.28;;
67776;SDS011;54576;52.020;5.536;2023-07-24T07:25:46;7.28;;;6.05;;
67776;SDS011;54576;52.020;5.536;2023-07-24T07:28:12;6.75;;;5.72;;
67776;SDS011;54576;52.020;5.536;2023-07-24T07:30:38;13.07;;;6.25;;
67776;SDS011;54576;52.020;5.536;2023-07-24T07:33:04;15.50;;;5.85;;
67776;SDS011;54576;52.020;5.536;2023-07-24T07:35:31;13.77;;;7.05;;
67776;SDS011;54576;52.020;5.536;2023-07-24T07:37:57;12.55;;;5.95;;
67776;SDS011;54576;52.020;5.536;2023-07-24T07:40:23;8.52;;;6.43;;
67776;SDS011;54576;52.020;5.536;2023-07-24T07:42:49;10.23;;;5.97;;
67776;SDS011;54576;52.020;5.536;2023-07-24T07:45:14;9.45;;;6.35;;
67776;SDS011;54576;52.020;5.536;2023-07-24T07:47:40;14.48;;;6.18;;
67776;SDS011;54576;52.020;5.536;2023-07-24T07:50:05;11.45;;;6.38;;
67776;SDS011;54576;52.020;5.536;2023-07-24T07:52:31;15.98;;;6.85;;
67776;SDS011;54576;52.020;5.536;2023-07-24T07:54:57;11.88;;;5.68;;
67776;SDS011;54576;52.020;5.536;2023-07-24T07:57:22;10.15;;;6.15;;
67776;SDS011;54576;52.020;5.536;2023-07-24T07:59:48;8.85;;;6.03;;
67776;SDS011;54576;52.020;5.536;2023-07-24T08:02:13;10.98;;;6.65;;
67776;SDS011;54576;52.020;5.536;2023-07-24T08:04:39;8.10;;;6.72;;
67776;SDS011;54576;52.020;5.536;2023-07-24T08:07:04;7.03;;;6.25;;
67776;SDS011;54576;52.020;5.536;2023-07-24T08:09:30;10.50;;;7.18;;
67776;SDS011;54576;52.020;5.536;2023-07-24T08:11:57;13.60;;;6.68;;
67776;SDS011;54576;52.020;5.536;2023-07-24T08:14:23;8.85;;;6.45;;
67776;SDS011;54576;52.020;5.536;2023-07-24T08:16:48;12.00;;;6.72;;
67776;SDS011;54576;52.020;5.536;2023-07-24T08:19:14;10.93;;;6.35;;
67776;SDS011;54576;52.020;5.536;2023-07-24T08:21:40;13.75;;;6.90;;
67776;SDS011;54576;52.020;5.536;2023-07-24T08:24:06;9.50;;;6.07;;
67776;SDS011;54576;52.020;5.536;2023-07-24T08:26:32;11.70;;;6.80;;
67776;SDS011;54576;52.020;5.536;2023-07-24T08:28:58;10.07;;;5.95;;
67776;SDS011;54576;52.020;5.536;2023-07-24T08:31:23;10.85;;;6.43;;
67776;SDS011;54576;52.020;5.536;2023-07-24T08:33:49;6.10;;;5.47;;
67776;SDS011;54576;52.020;5.536;2023-07-24T08:36:15;9.20;;;6.22;;
67776;SDS011;54576;52.020;5.536;2023-07-24T08:38:41;9.27;;;6.15;;
67776;SDS011;54576;52.020;5.536;2023-07-24T08:43:35;9.93;;;6.30;;
67776;SDS011;54576;52.020;5.536;2023-07-24T08:46:01;11.43;;;6.18;;
67776;SDS011;54576;52.020;5.536;2023-07-24T08:48:32;10.98;;;6.00;;
67776;SDS011;54576;52.020;5.536;2023-07-24T08:51:01;6.93;;;5.60;;
67776;SDS011;54576;52.020;5.536;2023-07-24T08:53:28;9.57;;;5.95;;
67776;SDS011;54576;52.020;5.536;2023-07-24T08:55:55;9.50;;;5.70;;
67776;SDS011;54576;52.020;5.536;2023-07-24T08:58:22;15.50;;;5.55;;
67776;SDS011;54576;52.020;5.536;2023-07-24T09:00:48;8.00;;;5.95;;
67776;SDS011;54576;52.020;5.536;2023-07-24T09:03:14;10.65;;;5.72;;
67776;SDS011;54576;52.020;5.536;2023-07-24T09:05:39;7.07;;;5.60;;
67776;SDS011;54576;52.020;5.536;2023-07-24T09:08:05;9.82;;;5.43;;
67776;SDS011;54576;52.020;5.536;2023-07-24T09:10:31;7.85;;;5.68;;
67776;SDS011;54576;52.020;5.536;2023-07-24T09:12:57;7.53;;;5.18;;
67776;SDS011;54576;52.020;5.536;2023-07-24T09:15:23;6.60;;;5.00;;
67776;SDS011;54576;52.020;5.536;2023-07-24T09:17:49;5.85;;;5.32;;
67776;SDS011;54576;52.020;5.536;2023-07-24T09:20:16;8.93;;;5.30;;
67776;SDS011;54576;52.020;5.536;2023-07-24T09:22:48;8.73;;;5.45;;
67776;SDS011;54576;52.020;5.536;2023-07-24T09:25:15;12.48;;;5.78;;
67776;SDS011;54576;52.020;5.536;2023-07-24T09:27:40;11.18;;;5.32;;
67776;SDS011;54576;52.020;5.536;2023-07-24T09:30:13;8.18;;;5.30;;
67776;SDS011;54576;52.020;5.536;2023-07-24T09:32:39;12.15;;;5.57;;
67776;SDS011;54576;52.020;5.536;2023-07-24T09:35:18;8.15;;;5.68;;
67776;SDS011;54576;52.020;5.536;2023-07-24T09:38:03;10.02;;;6.07;;
67776;SDS011;54576;52.020;5.536;2023-07-24T09:40:40;12.80;;;5.30;;
67776;SDS011;54576;52.020;5.536;2023-07-24T09:43:14;8.25;;;5.28;;
67776;SDS011;54576;52.020;5.536;2023-07-24T09:45:50;10.30;;;4.82;;
67776;SDS011;54576;52.020;5.536;2023-07-24T09:48:20;9.32;;;4.45;;
67776;SDS011;54576;52.020;5.536;2023-07-24T09:50:47;7.20;;;4.55;;
67776;SDS011;54576;52.020;5.536;2023-07-24T09:56:06;10.90;;;4.95;;
67776;SDS011;54576;52.020;5.536;2023-07-24T09:58:32;10.10;;;5.28;;
67776;SDS011;54576;52.020;5.536;2023-07-24T10:01:00;15.13;;;5.45;;
67776;SDS011;54576;52.020;5.536;2023-07-24T10:05:53;12.05;;;4.80;;
67776;SDS011;54576;52.020;5.536;2023-07-24T10:08:22;5.68;;;4.72;;
67776;SDS011;54576;52.020;5.536;2023-07-24T10:10:50;6.20;;;4.55;;
67776;SDS011;54576;52.020;5.536;2023-07-24T10:13:18;8.27;;;4.45;;
67776;SDS011;54576;52.020;5.536;2023-07-24T10:15:45;11.20;;;4.97;;
67776;SDS011;54576;52.020;5.536;2023-07-24T10:18:12;6.75;;;4.18;;
67776;SDS011;54576;52.020;5.536;2023-07-24T10:23:08;6.18;;;3.78;;
67776;SDS011;54576;52.020;5.536;2023-07-24T10:25:35;6.85;;;3.90;;
67776;SDS011;54576;52.020;5.536;2023-07-24T10:28:03;5.88;;;3.42;;
67776;SDS011;54576;52.020;5.536;2023-07-24T10:30:35;9.07;;;4.35;;
67776;SDS011;54576;52.020;5.536;2023-07-24T10:35:40;9.55;;;3.90;;
67776;SDS011;54576;52.020;5.536;2023-07-24T10:38:08;12.23;;;4.00;;
67776;SDS011;54576;52.020;5.536;2023-07-24T10:40:34;7.20;;;4.35;;
67776;SDS011;54576;52.020;5.536;2023-07-24T10:43:01;9.95;;;5.38;;
67776;SDS011;54576;52.020;5.536;2023-07-24T10:45:51;8.43;;;4.60;;
67776;SDS011;54576;52.020;5.536;2023-07-24T10:48:18;9.98;;;5.07;;
67776;SDS011;54576;52.020;5.536;2023-07-24T10:50:45;10.07;;;5.35;;
67776;SDS011;54576;52.020;5.536;2023-07-24T10:53:16;12.80;;;5.53;;
67776;SDS011;54576;52.020;5.536;2023-07-24T10:55:42;8.55;;;4.75;;
67776;SDS011;54576;52.020;5.536;2023-07-24T10:58:09;6.82;;;4.80;;
67776;SDS011;54576;52.020;5.536;2023-07-24T11:00:35;9.75;;;6.13;;
67776;SDS011;54576;52.020;5.536;2023-07-24T11:03:01;9.07;;;5.25;;
67776;SDS011;54576;52.020;5.536;2023-07-24T11:05:27;9.93;;;5.28;;
67776;SDS011;54576;52.020;5.536;2023-07-24T11:07:54;8.77;;;5.13;;
67776;SDS011;54576;52.020;5.536;2023-07-24T11:10:20;7.80;;;4.93;;
67776;SDS011;54576;52.020;5.536;2023-07-24T11:12:47;12.55;;;5.00;;
67776;SDS011;54576;52.020;5.536;2023-07-24T11:15:13;7.50;;;5.03;;
67776;SDS011;54576;52.020;5.536;2023-07-24T11:17:40;9.48;;;4.60;;
67776;SDS011;54576;52.020;5.536;2023-07-24T11:22:39;5.20;;;3.72;;
67776;SDS011;54576;52.020;5.536;2023-07-24T11:25:06;6.25;;;3.90;;
67776;SDS011;54576;52.020;5.536;2023-07-24T11:27:33;6.75;;;4.00;;
67776;SDS011;54576;52.020;5.536;2023-07-24T11:30:02;9.60;;;4.03;;
67776;SDS011;54576;52.020;5.536;2023-07-24T11:32:28;7.82;;;3.70;;
67776;SDS011;54576;52.020;5.536;2023-07-24T11:34:54;8.60;;;3.80;;
67776;SDS011;54576;52.020;5.536;2023-07-24T11:37:20;9.48;;;4.20;;
67776;SDS011;54576;52.020;5.536;2023-07-24T11:39:58;7.00;;;4.35;;
67776;SDS011;54576;52.020;5.536;2023-07-24T11:42:30;9.23;;;4.50;;
67776;SDS011;54576;52.020;5.536;2023-07-24T11:44:55;9.95;;;4.25;;
67776;SDS011;54576;52.020;5.536;2023-07-24T11:47:25;11.30;;;5.20;;
67776;SDS011;54576;52.020;5.536;2023-07-24T11:49:58;8.00;;;4.93;;
67776;SDS011;54576;52.020;5.536;2023-07-24T11:52:43;12.63;;;4.95;;
67776;SDS011;54576;52.020;5.536;2023-07-24T11:55:14;9.88;;;5.10;;
67776;SDS011;54576;52.020;5.536;2023-07-24T11:57:41;14.27;;;4.78;;
67776;SDS011;54576;52.020;5.536;2023-07-24T12:00:17;9.73;;;4.70;;
67776;SDS011;54576;52.020;5.536;2023-07-24T12:02:45;9.30;;;4.78;;
67776;SDS011;54576;52.020;5.536;2023-07-24T12:05:11;9.02;;;4.88;;
67776;SDS011;54576;52.020;5.536;2023-07-24T12:07:36;15.10;;;4.80;;
67776;SDS011;54576;52.020;5.536;2023-07-24T12:10:02;11.98;;;5.07;;
67776;SDS011;54576;52.020;5.536;2023-07-24T12:12:39;14.13;;;4.90;;
67776;SDS011;54576;52.020;5.536;2023-07-24T12:15:08;12.60;;;4.50;;
67776;SDS011;54576;52.020;5.536;2023-07-24T12:17:34;17.15;;;5.93;;
67776;SDS011;54576;52.020;5.536;2023-07-24T12:20:00;11.05;;;5.40;;
67776;SDS011;54576;52.020;5.536;2023-07-24T12:22:27;11.07;;;5.15;;
67776;SDS011;54576;52.020;5.536;2023-07-24T12:24:52;9.48;;;5.60;;
67776;SDS011;54576;52.020;5.536;2023-07-24T12:27:18;10.38;;;5.03;;
67776;SDS011;54576;52.020;5.536;2023-07-24T12:29:43;9.15;;;4.75;;
67776;SDS011;54576;52.020;5.536;2023-07-24T12:32:09;9.95;;;5.00;;
67776;SDS011;54576;52.020;5.536;2023-07-24T12:34:35;8.55;;;5.13;;
67776;SDS011;54576;52.020;5.536;2023-07-24T12:37:01;9.25;;;5.32;;
67776;SDS011;54576;52.020;5.536;2023-07-24T12:39:27;5.45;;;3.92;;
67776;SDS011;54576;52.020;5.536;2023-07-24T12:41:52;7.03;;;3.78;;
67776;SDS011;54576;52.020;5.536;2023-07-24T12:44:18;9.25;;;4.18;;
67776;SDS011;54576;52.020;5.536;2023-07-24T12:46:43;7.68;;;4.22;;
67776;SDS011;54576;52.020;5.536;2023-07-24T12:49:09;9.40;;;3.97;;
67776;SDS011;54576;52.020;5.536;2023-07-24T12:51:35;8.45;;;4.05;;
67776;SDS011;54576;52.020;5.536;2023-07-24T12:54:01;7.53;;;3.60;;
67776;SDS011;54576;52.020;5.536;2023-07-24T12:56:27;7.57;;;4.07;;
67776;SDS011;54576;52.020;5.536;2023-07-24T12:58:52;12.80;;;4.22;;
67776;SDS011;54576;52.020;5.536;2023-07-24T13:01:18;6.05;;;3.58;;
67776;SDS011;54576;52.020;5.536;2023-07-24T13:03:43;10.05;;;4.47;;
67776;SDS011;54576;52.020;5.536;2023-07-24T13:06:09;7.30;;;3.97;;
67776;SDS011;54576;52.020;5.536;2023-07-24T13:08:35;11.30;;;4.53;;
67776;SDS011;54576;52.020;5.536;2023-07-24T13:11:01;10.23;;;4.85;;
67776;SDS011;54576;52.020;5.536;2023-07-24T13:13:26;9.68;;;4.22;;
67776;SDS011;54576;52.020;5.536;2023-07-24T13:15:52;12.50;;;4.63;;
67776;SDS011;54576;52.020;5.536;2023-07-24T13:18:17;10.35;;;4.45;;
67776;SDS011;54576;52.020;5.536;2023-07-24T13:20:45;13.05;;;4.60;;
67776;SDS011;54576;52.020;5.536;2023-07-24T13:23:10;8.55;;;4.90;;
67776;SDS011;54576;52.020;5.536;2023-07-24T13:25:36;7.93;;;4.85;;
67776;SDS011;54576;52.020;5.536;2023-07-24T13:28:02;8.30;;;4.75;;
67776;SDS011;54576;52.020;5.536;2023-07-24T13:30:27;8.07;;;4.72;;
67776;SDS011;54576;52.020;5.536;2023-07-24T13:32:53;9.20;;;5.43;;
67776;SDS011;54576;52.020;5.536;2023-07-24T13:35:19;11.02;;;5.47;;
67776;SDS011;54576;52.020;5.536;2023-07-24T13:37:44;12.45;;;5.75;;
67776;SDS011;54576;52.020;5.536;2023-07-24T13:40:10;10.48;;;5.85;;
67776;SDS011;54576;52.020;5.536;2023-07-24T13:42:36;11.20;;;5.75;;
67776;SDS011;54576;52.020;5.536;2023-07-24T13:45:01;15.02;;;5.63;;
67776;SDS011;54576;52.020;5.536;2023-07-24T13:47:27;13.18;;;5.38;;
67776;SDS011;54576;52.020;5.536;2023-07-24T13:49:53;5.53;;;4.40;;
67776;SDS011;54576;52.020;5.536;2023-07-24T13:52:18;8.88;;;4.40;;
67776;SDS011;54576;52.020;5.536;2023-07-24T13:54:46;9.52;;;4.57;;
67776;SDS011;54576;52.020;5.536;2023-07-24T13:57:13;7.65;;;4.15;;
67776;SDS011;54576;52.020;5.536;2023-07-24T13:59:38;6.28;;;3.70;;
67776;SDS011;54576;52.020;5.536;2023-07-24T14:02:05;5.25;;;3.40;;
67776;SDS011;54576;52.020;5.536;2023-07-24T14:04:31;7.90;;;4.25;;
67776;SDS011;54576;52.020;5.536;2023-07-24T14:06:56;6.78;;;3.83;;
67776;SDS011;54576;52.020;5.536;2023-07-24T14:09:22;6.35;;;3.22;;
67776;SDS011;54576;52.020;5.536;2023-07-24T14:11:48;7.18;;;2.97;;
67776;SDS011;54576;52.020;5.536;2023-07-24T14:14:15;7.05;;;3.60;;
67776;SDS011;54576;52.020;5.536;2023-07-24T14:16:42;7.53;;;3.45;;
67776;SDS011;54576;52.020;5.536;2023-07-24T14:19:08;8.60;;;2.95;;
67776;SDS011;54576;52.020;5.536;2023-07-24T14:21:33;5.35;;;2.92;;
67776;SDS011;54576;52.020;5.536;2023-07-24T14:23:59;3.78;;;3.33;;
67776;SDS011;54576;52.020;5.536;2023-07-24T14:26:25;5.50;;;3.78;;
67776;SDS011;54576;52.020;5.536;2023-07-24T14:28:50;6.25;;;3.95;;
67776;SDS011;54576;52.020;5.536;2023-07-24T14:31:16;6.30;;;4.18;;
67776;SDS011;54576;52.020;5.536;2023-07-24T14:33:41;4.80;;;3.60;;
67776;SDS011;54576;52.020;5.536;2023-07-24T14:36:10;8.88;;;4.80;;
67776;SDS011;54576;52.020;5.536;2023-07-24T14:38:35;4.40;;;4.00;;
67776;SDS011;54576;52.020;5.536;2023-07-24T14:41:01;10.45;;;3.53;;
67776;SDS011;54576;52.020;5.536;2023-07-24T14:43:26;5.47;;;3.55;;
67776;SDS011;54576;52.020;5.536;2023-07-24T14:45:52;3.88;;;2.90;;
67776;SDS011;54576;52.020;5.536;2023-07-24T14:48:17;8.57;;;3.35;;
67776;SDS011;54576;52.020;5.536;2023-07-24T14:50:46;5.05;;;3.65;;
67776;SDS011;54576;52.020;5.536;2023-07-24T14:53:11;4.35;;;3.80;;
67776;SDS011;54576;52.020;5.536;2023-07-24T14:55:37;9.02;;;3.92;;
67776;SDS011;54576;52.020;5.536;2023-07-24T14:58:02;5.32;;;3.70;;
67776;SDS011;54576;52.020;5.536;2023-07-24T15:00:29;5.82;;;4.57;;
67776;SDS011;54576;52.020;5.536;2023-07-24T15:02:56;8.88;;;3.92;;